createdAt,value
2022-09-24T00:01:22.525Z,4.13
2022-09-24T00:03:52.167Z,2.23
2022-09-24T00:06:19.833Z,5.80
2022-09-24T00:08:47.869Z,4.33
2022-09-24T00:11:15.600Z,2.00
2022-09-24T00:13:42.969Z,3.70
2022-09-24T00:16:12.170Z,3.83
2022-09-24T00:18:40.324Z,2.47
2022-09-24T00:21:15.857Z,2.33
2022-09-24T00:23:43.185Z,2.60
2022-09-24T00:26:29.300Z,2.63
2022-09-24T00:28:56.666Z,2.47
2022-09-24T00:31:24.204Z,3.10
2022-09-24T00:33:52.155Z,3.23
2022-09-24T00:36:21.279Z,3.77
2022-09-24T00:38:50.060Z,2.93
2022-09-24T00:41:17.622Z,2.23
2022-09-24T00:43:44.946Z,4.60
2022-09-24T00:46:15.486Z,3.73
2022-09-24T00:48:43.378Z,2.83
2022-09-24T00:51:14.029Z,3.47
2022-09-24T00:53:44.003Z,3.30
2022-09-24T00:56:15.516Z,2.83
2022-09-24T00:58:43.928Z,2.27
2022-09-24T01:01:11.646Z,3.50
2022-09-24T01:03:41.139Z,2.73
2022-09-24T01:06:09.230Z,4.10
2022-09-24T01:08:36.592Z,2.47
2022-09-24T01:11:18.100Z,3.07
2022-09-24T01:13:56.198Z,2.93
2022-09-24T01:16:29.113Z,4.27
2022-09-24T01:19:04.373Z,3.57
2022-09-24T01:21:36.083Z,3.10
2022-09-24T01:24:12.535Z,5.00
2022-09-24T01:26:48.934Z,4.07
2022-09-24T01:29:25.370Z,2.20
2022-09-24T01:31:54.871Z,2.53
2022-09-24T01:34:26.882Z,2.70
2022-09-24T01:36:54.686Z,3.00
2022-09-24T01:39:22.786Z,4.00
2022-09-24T01:41:50.185Z,4.03
2022-09-24T01:44:18.377Z,2.60
2022-09-24T01:46:47.153Z,3.30
2022-09-24T01:49:14.637Z,3.20
2022-09-24T01:51:44.385Z,3.67
2022-09-24T01:54:16.053Z,3.30
2022-09-24T01:56:46.705Z,2.47
2022-09-24T01:59:16.041Z,2.60
2022-09-24T02:01:46.211Z,3.23
2022-09-24T02:04:17.482Z,3.43
2022-09-24T02:06:47.492Z,4.47
2022-09-24T02:09:32.551Z,3.83
2022-09-24T02:12:02.750Z,3.97
2022-09-24T02:14:33.130Z,3.67
2022-09-24T02:17:01.638Z,4.07
2022-09-24T02:19:30.974Z,3.70
2022-09-24T02:21:58.966Z,2.70
2022-09-24T02:24:31.328Z,3.00
2022-09-24T02:26:58.697Z,4.30
2022-09-24T02:29:26.342Z,3.47
2022-09-24T02:31:56.013Z,3.33
2022-09-24T02:34:25.502Z,4.70
2022-09-24T02:36:55.773Z,5.27
2022-09-24T02:39:23.577Z,3.67
2022-09-24T02:42:07.156Z,4.67
2022-09-24T02:44:53.442Z,4.97
2022-09-24T02:47:28.966Z,5.47
2022-09-24T02:50:20.611Z,3.80
2022-09-24T02:53:16.064Z,5.73
2022-09-24T02:56:04.839Z,3.03
2022-09-24T02:58:38.166Z,3.17
2022-09-24T03:01:14.704Z,5.77
2022-09-24T03:03:46.483Z,5.03
2022-09-24T03:06:22.204Z,5.07
2022-09-24T03:08:59.133Z,3.57
2022-09-24T03:11:44.600Z,6.93
2022-09-24T03:14:22.683Z,3.60
2022-09-24T03:17:02.863Z,3.47
2022-09-24T03:19:40.983Z,4.10
2022-09-24T03:22:18.356Z,3.23
2022-09-24T03:24:57.382Z,3.70
2022-09-24T03:27:45.710Z,2.93
2022-09-24T03:30:45.343Z,3.80
2022-09-24T03:33:25.597Z,3.13
2022-09-24T03:36:06.019Z,4.10
2022-09-24T03:38:54.374Z,5.03
2022-09-24T03:41:41.519Z,4.73
2022-09-24T03:44:31.835Z,4.53
2022-09-24T03:47:19.436Z,4.77
2022-09-24T03:49:51.091Z,6.37
2022-09-24T03:52:44.056Z,4.47
2022-09-24T03:55:15.491Z,3.40
2022-09-24T03:58:05.364Z,4.17
2022-09-24T04:00:40.846Z,4.10
2022-09-24T04:03:20.733Z,7.67
2022-09-24T04:05:58.591Z,3.53
2022-09-24T04:08:36.576Z,5.67
2022-09-24T04:11:48.064Z,3.77
2022-09-24T04:14:27.796Z,3.93
2022-09-24T04:17:02.295Z,5.43
2022-09-24T04:20:02.307Z,5.67
2022-09-24T04:23:03.064Z,5.80
2022-09-24T04:25:47.645Z,5.00
2022-09-24T04:31:37.413Z,6.10
2022-09-24T04:34:20.977Z,4.07
2022-09-24T04:37:14.024Z,3.57
2022-09-24T04:39:56.724Z,5.50
2022-09-24T04:42:41.601Z,4.97
2022-09-24T04:45:33.318Z,4.30
2022-09-24T04:48:41.035Z,3.30
2022-09-24T04:51:28.490Z,4.57
2022-09-24T04:54:09.527Z,5.00
2022-09-24T04:56:58.468Z,5.13
2022-09-24T04:59:40.675Z,4.00
2022-09-24T05:02:17.773Z,5.10
2022-09-24T05:08:10.231Z,4.77
2022-09-24T05:10:45.683Z,5.30
2022-09-24T05:13:25.715Z,4.30
2022-09-24T05:16:13.885Z,4.00
2022-09-24T05:18:55.751Z,4.10
2022-09-24T05:21:41.653Z,6.73
2022-09-24T05:24:19.439Z,6.33
2022-09-24T05:27:05.337Z,3.03
2022-09-24T05:29:34.434Z,4.60
2022-09-24T05:32:17.770Z,3.20
2022-09-24T05:35:00.051Z,2.97
2022-09-24T05:37:53.830Z,3.10
2022-09-24T05:40:42.263Z,4.83
2022-09-24T05:43:30.749Z,4.77
2022-09-24T05:46:09.241Z,4.17
2022-09-24T05:48:50.951Z,3.60
2022-09-24T05:51:50.663Z,2.93
2022-09-24T05:54:34.880Z,4.00
2022-09-24T05:57:07.718Z,6.80
2022-09-24T05:59:36.584Z,4.63
2022-09-24T06:02:16.347Z,3.93
2022-09-24T06:04:52.896Z,5.00
2022-09-24T06:07:23.193Z,4.83
2022-09-24T06:10:07.635Z,3.80
2022-09-24T06:15:38.829Z,7.70
2022-09-24T06:18:11.635Z,3.90
2022-09-24T06:20:46.454Z,4.50
2022-09-24T06:23:41.582Z,3.60
2022-09-24T06:26:16.505Z,4.07
2022-09-24T06:28:50.393Z,4.03
2022-09-24T06:31:52.972Z,5.00
2022-09-24T06:34:59.196Z,3.20
2022-09-24T06:37:39.318Z,4.10
2022-09-24T06:40:13.332Z,3.33
2022-09-24T06:43:02.353Z,6.53
2022-09-24T06:45:36.041Z,4.43
2022-09-24T06:48:12.331Z,2.87
2022-09-24T06:50:55.669Z,4.40
2022-09-24T06:53:33.453Z,3.03
2022-09-24T06:56:07.463Z,4.23
2022-09-24T06:58:49.152Z,5.17
2022-09-24T07:01:29.758Z,4.13
2022-09-24T07:04:20.009Z,4.10
2022-09-24T07:07:15.084Z,3.40
2022-09-24T07:09:53.740Z,3.53
2022-09-24T07:12:26.305Z,3.40
2022-09-24T07:14:58.450Z,3.63
2022-09-24T07:17:33.733Z,2.93
2022-09-24T07:20:03.910Z,2.67
2022-09-24T07:22:40.609Z,3.73
2022-09-24T07:25:13.671Z,6.70
2022-09-24T07:27:48.191Z,5.43
2022-09-24T07:30:27.734Z,4.63
2022-09-24T07:33:02.366Z,4.40
2022-09-24T07:35:39.257Z,6.37
2022-09-24T07:38:15.969Z,4.07
2022-09-24T07:40:52.227Z,3.10
2022-09-24T07:43:36.543Z,5.70
2022-09-24T07:46:11.926Z,2.60
2022-09-24T07:48:43.436Z,4.57
2022-09-24T07:51:20.370Z,3.97
2022-09-24T07:53:54.396Z,3.53
2022-09-24T07:56:26.986Z,4.53
2022-09-24T07:59:09.199Z,3.10
2022-09-24T08:01:41.946Z,3.67
2022-09-24T08:04:17.020Z,3.57
2022-09-24T08:06:51.851Z,4.67
2022-09-24T08:09:27.296Z,3.47
2022-09-24T08:11:58.843Z,3.57
2022-09-24T08:14:37.643Z,2.80
2022-09-24T08:17:19.863Z,2.93
2022-09-24T08:19:57.295Z,3.20
2022-09-24T08:22:26.880Z,3.87
2022-09-24T08:25:03.658Z,4.87
2022-09-24T08:27:40.211Z,2.87
2022-09-24T08:30:12.889Z,6.77
2022-09-24T08:33:02.336Z,3.37
2022-09-24T08:35:43.207Z,5.97
2022-09-24T08:38:28.671Z,2.67
2022-09-24T08:41:16.285Z,3.30
2022-09-24T08:44:10.091Z,3.57
2022-09-24T08:47:11.057Z,3.00
2022-09-24T08:50:12.512Z,3.77
2022-09-24T08:53:11.992Z,4.23
2022-09-24T08:56:15.197Z,6.63
2022-09-24T08:59:02.369Z,3.37
2022-09-24T09:01:50.395Z,3.27
2022-09-24T09:04:40.719Z,2.87
2022-09-24T09:07:33.540Z,3.30
2022-09-24T09:10:11.412Z,2.60
2022-09-24T09:12:44.198Z,2.73
2022-09-24T09:15:27.898Z,2.97
2022-09-24T09:18:03.716Z,4.60
2022-09-24T09:20:36.786Z,2.80
2022-09-24T09:23:30.202Z,2.67
2022-09-24T09:26:07.096Z,3.17
2022-09-24T09:28:56.192Z,3.60
2022-09-24T09:32:01.010Z,2.20
2022-09-24T09:34:50.733Z,2.93
2022-09-24T09:37:32.734Z,4.40
2022-09-24T09:40:32.239Z,2.50
2022-09-24T09:43:27.196Z,1.87
2022-09-24T09:46:32.493Z,3.17
2022-09-24T09:49:35.222Z,2.70
2022-09-24T09:52:10.974Z,4.13
2022-09-24T09:57:58.591Z,4.07
2022-09-24T10:00:42.974Z,2.17
2022-09-24T10:03:43.252Z,1.87
2022-09-24T10:06:42.012Z,4.83
2022-09-24T10:09:25.501Z,4.33
2022-09-24T10:12:07.794Z,2.50
2022-09-24T10:14:50.130Z,3.20
2022-09-24T10:18:15.037Z,2.43
2022-09-24T10:21:14.714Z,1.90
2022-09-24T10:23:49.065Z,2.27
2022-09-24T10:26:45.380Z,1.50
2022-09-24T10:29:45.182Z,2.80
2022-09-24T10:32:33.385Z,2.17
2022-09-24T10:35:30.615Z,2.40
2022-09-24T10:38:28.608Z,2.53
2022-09-24T10:44:52.735Z,2.27
2022-09-24T10:47:53.158Z,2.17
2022-09-24T10:50:43.472Z,2.83
2022-09-24T10:53:37.654Z,5.10
2022-09-24T10:56:42.180Z,4.23
2022-09-24T10:59:37.913Z,2.73
2022-09-24T11:02:49.117Z,1.90
2022-09-24T11:05:35.109Z,2.63
2022-09-24T11:08:25.548Z,3.50
2022-09-24T11:11:06.557Z,2.07
2022-09-24T11:13:51.475Z,3.37
2022-09-24T11:16:36.757Z,2.43
2022-09-24T11:19:19.946Z,2.97
2022-09-24T11:22:16.236Z,3.00
2022-09-24T11:25:08.785Z,2.27
2022-09-24T11:27:48.115Z,3.50
2022-09-24T11:30:20.121Z,2.90
2022-09-24T11:33:05.132Z,2.43
2022-09-24T11:36:05.118Z,2.10
2022-09-24T11:38:53.453Z,2.97
2022-09-24T11:41:37.296Z,3.30
2022-09-24T11:44:30.272Z,6.27
2022-09-24T11:47:22.381Z,3.93
2022-09-24T11:50:05.463Z,3.27
2022-09-24T11:52:49.304Z,3.50
2022-09-24T11:55:32.067Z,4.43
2022-09-24T11:58:11.721Z,2.33
2022-09-24T12:00:51.758Z,4.23
2022-09-24T12:04:08.886Z,2.90
2022-09-24T12:07:06.799Z,3.10
2022-09-24T12:12:47.434Z,4.47
2022-09-24T12:21:31.133Z,4.57
2022-09-24T12:24:44.383Z,3.30
2022-09-24T12:28:11.651Z,3.57
2022-09-24T12:31:28.021Z,3.93
2022-09-24T12:34:34.064Z,3.63
2022-09-24T12:37:33.662Z,3.70
2022-09-24T12:40:20.723Z,3.07
2022-09-24T12:43:16.143Z,3.60
2022-09-24T12:48:47.091Z,4.83
2022-09-24T12:52:01.832Z,1.70
2022-09-24T12:55:18.751Z,4.33
2022-09-24T12:58:07.089Z,2.97
2022-09-24T13:01:35.790Z,2.00
2022-09-24T13:05:03.171Z,3.40
2022-09-24T13:07:57.176Z,1.90
2022-09-24T13:10:49.896Z,1.97
2022-09-24T13:14:14.772Z,3.67
2022-09-24T13:17:09.837Z,1.70
2022-09-24T13:19:57.504Z,2.13
2022-09-24T13:26:11.181Z,2.20
2022-09-24T13:29:52.450Z,4.17
2022-09-24T13:33:59.975Z,2.30
2022-09-24T13:40:27.187Z,1.93
2022-09-24T13:43:19.162Z,1.87
2022-09-24T13:46:33.650Z,2.10
2022-09-24T13:49:36.404Z,2.40
2022-09-24T13:52:43.592Z,1.70
2022-09-24T13:55:23.446Z,2.93
2022-09-24T13:58:32.612Z,2.13
2022-09-24T14:01:13.322Z,6.13
2022-09-24T14:03:46.044Z,2.53
2022-09-24T14:09:55.101Z,1.93
2022-09-24T14:12:34.041Z,6.07
2022-09-24T14:15:06.369Z,2.50
2022-09-24T14:17:46.239Z,1.90
2022-09-24T14:20:24.675Z,12.30
2022-09-24T14:23:14.226Z,7.03
2022-09-24T14:25:57.167Z,1.87
2022-09-24T14:28:33.285Z,1.60
2022-09-24T14:31:11.952Z,1.87
2022-09-24T14:33:57.219Z,2.33
2022-09-24T14:36:39.057Z,16.33
2022-09-24T14:39:36.347Z,2.60
2022-09-24T14:42:39.829Z,4.17
2022-09-24T14:45:14.903Z,6.57
2022-09-24T14:47:57.401Z,59.67
2022-09-24T14:50:38.965Z,15.73
2022-09-24T14:53:28.819Z,11.53
2022-09-24T14:56:23.332Z,5.33
2022-09-24T14:58:59.885Z,4.73
2022-09-24T15:01:40.692Z,2.87
2022-09-24T15:04:29.529Z,10.73
2022-09-24T15:07:05.092Z,7.63
2022-09-24T15:09:54.019Z,11.33
2022-09-24T15:12:38.567Z,3.23
2022-09-24T15:15:29.033Z,3.63
2022-09-24T15:18:49.492Z,3.53
2022-09-24T15:21:18.710Z,2.33
2022-09-24T15:23:55.091Z,2.67
2022-09-24T15:26:32.541Z,3.43
2022-09-24T15:29:27.339Z,2.27
2022-09-24T15:35:30.390Z,1.87
2022-09-24T15:38:14.210Z,2.17
2022-09-24T15:40:56.750Z,3.20
2022-09-24T15:43:40.760Z,3.50
2022-09-24T15:46:17.148Z,3.03
2022-09-24T15:49:00.841Z,3.90
2022-09-24T15:51:31.375Z,1.97
2022-09-24T15:54:02.200Z,2.13
2022-09-24T15:56:48.240Z,3.80
2022-09-24T15:59:30.000Z,1.87
2022-09-24T16:02:15.219Z,2.17
2022-09-24T16:04:47.133Z,2.00
2022-09-24T16:07:36.032Z,2.23
2022-09-24T16:10:07.373Z,2.00
2022-09-24T16:12:42.510Z,2.93
2022-09-24T16:15:23.854Z,2.23
2022-09-24T16:17:56.635Z,2.03
2022-09-24T16:20:29.316Z,2.30
2022-09-24T16:23:18.377Z,3.73
2022-09-24T16:26:06.826Z,5.30
2022-09-24T16:28:38.686Z,3.43
2022-09-24T16:31:24.309Z,4.40
2022-09-24T16:34:05.537Z,4.63
2022-09-24T16:36:42.941Z,4.77
2022-09-24T16:39:22.845Z,5.70
2022-09-24T16:41:55.876Z,7.27
2022-09-24T16:44:32.357Z,6.73
2022-09-24T16:47:04.107Z,6.40
2022-09-24T16:49:44.046Z,13.20
2022-09-24T16:52:19.853Z,25.90
2022-09-24T16:54:56.322Z,21.07
2022-09-24T16:57:26.285Z,18.67
2022-09-24T16:59:59.200Z,11.30
2022-09-24T17:02:44.076Z,9.73
2022-09-24T17:05:21.339Z,9.83
2022-09-24T17:07:51.356Z,9.60
2022-09-24T17:10:26.691Z,8.60
2022-09-24T17:13:03.710Z,7.87
2022-09-24T17:15:35.824Z,9.43
2022-09-24T17:18:11.063Z,15.17
2022-09-24T17:20:40.608Z,5.87
2022-09-24T17:23:10.524Z,3.00
2022-09-24T17:25:38.394Z,2.97
2022-09-24T17:28:06.942Z,4.80
2022-09-24T17:30:34.402Z,5.70
2022-09-24T17:33:01.728Z,3.80
2022-09-24T17:35:30.620Z,4.13
2022-09-24T17:37:57.920Z,4.83
2022-09-24T17:40:26.769Z,3.20
2022-09-24T17:42:54.197Z,4.23
2022-09-24T17:45:22.120Z,8.07
2022-09-24T17:47:58.515Z,6.80
2022-09-24T17:50:25.858Z,6.30
2022-09-24T17:52:54.509Z,6.07
2022-09-24T17:55:21.849Z,6.43
2022-09-24T17:57:49.362Z,8.40
2022-09-24T18:00:16.749Z,7.90
2022-09-24T18:02:44.103Z,8.40
2022-09-24T18:05:11.690Z,10.97
2022-09-24T18:07:39.112Z,10.97
2022-09-24T18:10:08.419Z,7.73
2022-09-24T18:12:35.741Z,8.80
2022-09-24T18:15:03.080Z,9.67
2022-09-24T18:17:30.722Z,9.93
2022-09-24T18:19:58.103Z,12.13
2022-09-24T18:22:25.808Z,8.70
2022-09-24T18:24:53.149Z,11.73
2022-09-24T18:27:23.046Z,10.23
2022-09-24T18:29:52.214Z,7.80
2022-09-24T18:32:19.739Z,7.50
2022-09-24T18:34:47.094Z,9.17
2022-09-24T18:37:14.430Z,10.17
2022-09-24T18:39:41.792Z,6.97
2022-09-24T18:42:09.313Z,9.33
2022-09-24T18:44:38.085Z,11.47
2022-09-24T18:47:05.457Z,8.23
2022-09-24T18:49:32.800Z,8.53
2022-09-24T18:52:00.225Z,8.83
2022-09-24T18:54:27.757Z,13.70
2022-09-24T18:56:55.174Z,12.50
2022-09-24T18:59:23.043Z,11.57
2022-09-24T19:01:52.003Z,10.77
2022-09-24T19:04:19.527Z,10.37
2022-09-24T19:06:48.022Z,10.33
2022-09-24T19:09:17.259Z,9.83
2022-09-24T19:11:45.377Z,6.20
2022-09-24T19:14:14.881Z,6.60
2022-09-24T19:16:42.230Z,9.47
2022-09-24T19:19:12.097Z,8.60
2022-09-24T19:21:41.268Z,9.63
2022-09-24T19:24:09.771Z,10.93
2022-09-24T19:26:37.750Z,10.60
2022-09-24T19:29:05.176Z,13.87
2022-09-24T19:31:35.849Z,13.83
2022-09-24T19:34:04.309Z,14.67
2022-09-24T19:36:38.715Z,15.90
2022-09-24T19:39:09.714Z,13.63
2022-09-24T19:41:37.075Z,15.97
2022-09-24T19:44:08.906Z,15.00
2022-09-24T19:46:38.232Z,13.63
2022-09-24T19:49:06.047Z,12.77
2022-09-24T19:51:35.171Z,14.67
2022-09-24T19:54:03.483Z,12.10
2022-09-24T19:56:31.803Z,12.23
2022-09-24T19:59:00.513Z,9.97
2022-09-24T20:01:29.136Z,13.20
2022-09-24T20:03:57.013Z,10.93
2022-09-24T20:06:26.231Z,13.57
2022-09-24T20:08:55.246Z,12.70
2022-09-24T20:11:24.676Z,11.70
2022-09-24T20:13:53.224Z,11.03
2022-09-24T20:16:26.247Z,10.93
2022-09-24T20:18:57.384Z,10.80
2022-09-24T20:21:27.497Z,12.63
2022-09-24T20:23:57.535Z,13.73
2022-09-24T20:26:42.805Z,11.00
2022-09-24T20:29:12.229Z,12.80
2022-09-24T20:31:42.125Z,11.77
2022-09-24T20:34:10.275Z,13.10
2022-09-24T20:36:38.092Z,14.57
2022-09-24T20:39:06.755Z,10.63
2022-09-24T20:41:34.096Z,10.60
2022-09-24T20:44:01.626Z,11.30
2022-09-24T20:46:29.581Z,10.30
2022-09-24T20:48:58.373Z,8.63
2022-09-24T20:51:26.269Z,8.67
2022-09-24T20:53:54.282Z,8.57
2022-09-24T20:56:23.045Z,11.93
2022-09-24T20:58:51.160Z,9.40
2022-09-24T21:01:18.638Z,11.93
2022-09-24T21:03:49.893Z,10.53
2022-09-24T21:06:18.126Z,9.20
2022-09-24T21:08:46.752Z,10.77
2022-09-24T21:11:15.965Z,10.00
2022-09-24T21:13:45.650Z,10.77
2022-09-24T21:16:13.047Z,9.67
2022-09-24T21:18:41.167Z,10.50
2022-09-24T21:21:11.165Z,9.93
2022-09-24T21:23:39.727Z,8.37
2022-09-24T21:26:10.990Z,10.10
2022-09-24T21:28:38.666Z,8.17
2022-09-24T21:31:08.212Z,7.13
2022-09-24T21:33:36.097Z,11.20
2022-09-24T21:36:04.731Z,7.73
2022-09-24T21:38:32.159Z,10.57
2022-09-24T21:41:01.222Z,8.70
2022-09-24T21:43:32.446Z,8.03
2022-09-24T21:46:02.796Z,8.77
2022-09-24T21:48:32.006Z,10.10
2022-09-24T21:51:03.113Z,8.30
2022-09-24T21:53:30.865Z,9.60
2022-09-24T21:55:58.417Z,8.23
2022-09-24T21:58:26.070Z,6.10
2022-09-24T22:00:53.550Z,8.60
2022-09-24T22:03:21.396Z,9.70
2022-09-24T22:05:50.357Z,8.30
2022-09-24T22:08:21.200Z,9.00
2022-09-24T22:10:49.742Z,6.50
2022-09-24T22:13:17.261Z,9.07
2022-09-24T22:15:45.561Z,6.57
2022-09-24T22:18:12.979Z,7.87
2022-09-24T22:20:42.472Z,6.17
2022-09-24T22:23:11.228Z,6.97
2022-09-24T22:25:38.651Z,8.70
2022-09-24T22:28:06.037Z,12.97
2022-09-24T22:30:33.516Z,10.23
2022-09-24T22:33:00.893Z,8.67
2022-09-24T22:35:45.808Z,8.77
2022-09-24T22:38:15.678Z,7.63
2022-09-24T22:40:43.372Z,7.37
2022-09-24T22:43:10.715Z,5.87
2022-09-24T22:45:38.247Z,8.37
2022-09-24T22:48:05.592Z,10.07
2022-09-24T22:50:32.915Z,9.83
2022-09-24T22:53:00.620Z,8.17
2022-09-24T22:55:29.354Z,7.93
2022-09-24T22:57:56.744Z,8.13
2022-09-24T23:00:24.132Z,7.00
2022-09-24T23:02:51.459Z,9.57
2022-09-24T23:05:18.852Z,9.17
2022-09-24T23:07:46.237Z,8.43
2022-09-24T23:10:13.668Z,8.57
2022-09-24T23:12:42.301Z,9.10
2022-09-24T23:15:10.104Z,8.03
2022-09-24T23:17:38.210Z,6.37
2022-09-24T23:20:06.390Z,7.10
2022-09-24T23:22:33.882Z,6.60
2022-09-24T23:25:01.270Z,7.30
2022-09-24T23:27:28.600Z,7.90
2022-09-24T23:29:57.520Z,8.90
2022-09-24T23:32:24.835Z,9.67
2022-09-24T23:34:52.171Z,7.13
2022-09-24T23:37:19.519Z,8.80
2022-09-24T23:39:46.897Z,6.40
2022-09-24T23:42:14.373Z,6.30
2022-09-24T23:44:41.836Z,11.43
2022-09-24T23:47:10.484Z,7.53
2022-09-24T23:49:37.831Z,6.87
2022-09-24T23:52:05.785Z,4.80
2022-09-24T23:54:33.120Z,7.30
2022-09-24T23:57:00.447Z,5.40
2022-09-24T23:59:27.780Z,8.27
